Weather at Dyer Airport

Public forecast

Using degrees Fahrenheit for public forecast. Weather courtesy of forecast.io.

Closest aviation weather report (METAR) to Dyer Airport

Closest report is Eastern Sierra Regional Airport, 22.2 nm (41.1 km) SW. Retrieved 2020/09/20 09:56 UTC (17 minutes ago):

KBIH 200956Z AUTO 31008KT 10SM CLR 14/M01 A3004 RMK AO2 SLP123 T01391011

Closest aviation forecast (TAF) to Dyer Airport

Closest forecast is Eastern Sierra Regional Airport, 22.2 nm (41.1 km) SW. Retrieved 2020/09/20 06:22 UTC (4 hours ago):

TAF KBIH 200520Z 2006/2106 35007KT 6SM HZ SKC FM200800 VRB05KT P6SM SKC FM201900 15011G20KT 5SM FU SKC